createdAt,value
2022-10-11T00:01:31.751Z,101384.47
2022-10-11T00:03:58.163Z,101377.84
2022-10-11T00:06:24.479Z,101383.06
2022-10-11T00:08:50.811Z,101388.09
2022-10-11T00:11:17.195Z,101394.00
2022-10-11T00:13:43.545Z,101400.94
2022-10-11T00:16:11.626Z,101398.59
2022-10-11T00:18:38.891Z,101407.19
2022-10-11T00:21:08.429Z,101404.34
2022-10-11T00:23:35.193Z,101406.75
2022-10-11T00:26:04.655Z,101412.31
2022-10-11T00:28:31.835Z,101419.19
2022-10-11T00:30:58.252Z,101422.41
2022-10-11T00:33:24.770Z,101434.16
2022-10-11T00:35:51.205Z,101429.34
2022-10-11T00:38:17.982Z,101430.09
2022-10-11T00:40:45.735Z,101439.31
2022-10-11T00:43:18.084Z,101435.25
2022-10-11T00:45:56.801Z,101445.41
2022-10-11T00:48:27.649Z,101442.06
2022-10-11T00:50:58.360Z,101446.06
2022-10-11T00:53:26.209Z,101456.69
2022-10-11T00:56:04.655Z,101455.78
2022-10-11T00:58:33.580Z,101450.84
2022-10-11T01:00:59.944Z,101458.13
2022-10-11T01:03:28.362Z,101457.22
2022-10-11T01:05:55.587Z,101459.09
2022-10-11T01:08:23.120Z,101462.03
2022-10-11T01:10:49.551Z,101465.81
2022-10-11T01:13:27.818Z,101466.56
2022-10-11T01:16:23.254Z,101468.50
2022-10-11T01:18:57.747Z,101477.38
2022-10-11T01:21:52.821Z,101475.16
2022-10-11T01:24:28.275Z,101478.13
2022-10-11T01:27:19.493Z,101472.34
2022-10-11T01:30:18.155Z,101480.09
2022-10-11T01:33:05.225Z,101476.47
2022-10-11T01:36:03.639Z,101481.47
2022-10-11T01:38:34.817Z,101486.31
2022-10-11T01:41:10.571Z,101491.03
2022-10-11T01:43:39.257Z,101497.38
2022-10-11T01:46:08.264Z,101494.44
2022-10-11T01:48:53.838Z,101496.66
2022-10-11T01:51:24.971Z,101505.34
2022-10-11T01:54:18.778Z,101503.94
2022-10-11T01:57:26.174Z,101508.19
2022-10-11T02:00:01.747Z,101509.28
2022-10-11T02:03:21.556Z,101512.38
2022-10-11T02:05:57.545Z,101502.41
2022-10-11T02:08:49.810Z,101513.78
2022-10-11T02:11:24.468Z,101516.25
2022-10-11T02:13:57.476Z,101515.78
2022-10-11T02:16:31.303Z,101511.47
2022-10-11T02:18:59.415Z,101507.53
2022-10-11T02:21:27.359Z,101509.88
2022-10-11T02:23:59.933Z,101510.53
2022-10-11T02:26:30.603Z,101522.63
2022-10-11T02:29:01.270Z,101514.56
2022-10-11T02:31:30.429Z,101516.50
2022-10-11T02:34:06.105Z,101516.66
2022-10-11T02:37:16.581Z,101520.34
2022-10-11T02:39:47.285Z,101523.28
2022-10-11T02:42:38.747Z,101527.09
2022-10-11T02:45:13.823Z,101524.41
2022-10-11T02:47:42.387Z,101527.09
2022-10-11T02:50:11.461Z,101517.63
2022-10-11T02:52:37.876Z,101533.22
2022-10-11T02:55:04.649Z,101528.56
2022-10-11T02:57:30.967Z,101531.47
2022-10-11T02:59:57.294Z,101526.31
2022-10-11T03:02:23.658Z,101530.63
2022-10-11T03:04:50.078Z,101538.09
2022-10-11T03:07:16.504Z,101539.41
2022-10-11T03:09:43.008Z,101542.66
2022-10-11T03:12:09.362Z,101539.16
2022-10-11T03:14:35.697Z,101546.44
2022-10-11T03:17:23.808Z,101550.78
2022-10-11T03:19:48.396Z,101553.38
2022-10-11T03:22:14.991Z,101564.16
2022-10-11T03:24:41.379Z,101557.91
2022-10-11T03:27:07.728Z,101570.34
2022-10-11T03:29:34.074Z,101572.47
2022-10-11T03:32:00.494Z,101575.69
2022-10-11T03:34:26.850Z,101578.16
2022-10-11T03:36:53.180Z,101572.34
2022-10-11T03:39:19.677Z,101578.44
2022-10-11T03:41:46.096Z,101578.91
2022-10-11T03:44:12.552Z,101584.28
2022-10-11T03:46:38.971Z,101579.78
2022-10-11T03:49:05.294Z,101587.34
2022-10-11T03:51:31.802Z,101590.69
2022-10-11T03:53:58.215Z,101594.25
2022-10-11T03:56:24.697Z,101594.41
2022-10-11T03:58:51.013Z,101605.84
2022-10-11T04:01:17.630Z,101598.75
2022-10-11T04:03:44.047Z,101605.66
2022-10-11T04:06:10.373Z,101607.59
2022-10-11T04:08:36.708Z,101606.31
2022-10-11T04:11:03.348Z,101604.06
2022-10-11T04:13:29.655Z,101611.94
2022-10-11T04:15:56.016Z,101609.06
2022-10-11T04:18:22.371Z,101618.72
2022-10-11T04:20:48.781Z,101622.41
2022-10-11T04:23:15.105Z,101630.31
2022-10-11T04:25:42.122Z,101627.56
2022-10-11T04:28:09.238Z,101632.88
2022-10-11T04:30:35.622Z,101636.88
2022-10-11T04:33:02.090Z,101641.88
2022-10-11T04:35:28.577Z,101639.63
2022-10-11T04:37:54.878Z,101639.78
2022-10-11T04:40:21.205Z,101651.66
2022-10-11T04:42:47.530Z,101638.31
2022-10-11T04:45:14.002Z,101647.78
2022-10-11T04:47:41.050Z,101648.94
2022-10-11T04:50:07.974Z,101651.03
2022-10-11T04:52:34.454Z,101652.13
2022-10-11T04:55:00.799Z,101657.59
2022-10-11T04:57:27.121Z,101651.13
2022-10-11T04:59:53.425Z,101656.13
2022-10-11T05:02:19.831Z,101660.03
2022-10-11T05:04:46.349Z,101668.03
2022-10-11T05:07:12.702Z,101670.50
2022-10-11T05:09:39.038Z,101678.19
2022-10-11T05:12:05.877Z,101671.41
2022-10-11T05:14:32.186Z,101672.84
2022-10-11T05:16:58.504Z,101682.97
2022-10-11T05:19:24.862Z,101677.31
2022-10-11T05:21:51.178Z,101682.75
2022-10-11T05:24:17.499Z,101680.97
2022-10-11T05:26:43.785Z,101692.09
2022-10-11T05:29:10.128Z,101695.97
2022-10-11T05:31:36.482Z,101700.16
2022-10-11T05:34:02.837Z,101702.53
2022-10-11T05:36:29.200Z,101705.31
2022-10-11T05:38:55.533Z,101707.91
2022-10-11T05:41:21.916Z,101705.50
2022-10-11T05:43:48.224Z,101714.63
2022-10-11T05:46:14.949Z,101716.72
2022-10-11T05:48:41.282Z,101727.22
2022-10-11T05:51:10.387Z,101726.25
2022-10-11T05:53:38.333Z,101739.00
2022-10-11T05:56:05.776Z,101742.19
2022-10-11T05:58:32.395Z,101738.78
2022-10-11T06:00:58.853Z,101747.16
2022-10-11T06:03:25.258Z,101746.34
2022-10-11T06:05:56.486Z,101745.53
2022-10-11T06:08:23.386Z,101746.28
2022-10-11T06:10:49.694Z,101748.16
2022-10-11T06:13:16.084Z,101756.78
2022-10-11T06:15:42.423Z,101760.09
2022-10-11T06:18:08.868Z,101763.69
2022-10-11T06:20:35.221Z,101761.91
2022-10-11T06:23:02.871Z,101769.66
2022-10-11T06:25:29.251Z,101774.63
2022-10-11T06:27:55.708Z,101772.13
2022-10-11T06:30:22.339Z,101777.34
2022-10-11T06:32:48.641Z,101774.38
2022-10-11T06:35:15.000Z,101782.63
2022-10-11T06:37:41.441Z,101783.59
2022-10-11T06:40:08.396Z,101793.69
2022-10-11T06:42:34.839Z,101785.31
2022-10-11T06:45:01.160Z,101791.72
2022-10-11T06:47:27.553Z,101789.94
2022-10-11T06:49:53.918Z,101790.13
2022-10-11T06:52:20.254Z,101795.00
2022-10-11T06:54:46.651Z,101797.13
2022-10-11T06:57:13.034Z,101793.28
2022-10-11T06:59:39.350Z,101799.72
2022-10-11T07:02:06.734Z,101798.59
2022-10-11T07:04:33.849Z,101807.97
2022-10-11T07:07:00.400Z,101812.00
2022-10-11T07:09:26.739Z,101818.34
2022-10-11T07:11:53.181Z,101812.66
2022-10-11T07:14:19.507Z,101818.81
2022-10-11T07:16:45.977Z,101823.50
2022-10-11T07:19:12.354Z,101813.47
2022-10-11T07:21:38.756Z,101820.00
2022-10-11T07:24:05.602Z,101822.50
2022-10-11T07:26:38.122Z,101817.94
2022-10-11T07:29:09.023Z,101827.78
2022-10-11T07:31:38.196Z,101825.53
2022-10-11T07:34:04.586Z,101826.31
2022-10-11T07:36:30.946Z,101830.00
2022-10-11T07:38:57.349Z,101836.97
2022-10-11T07:41:23.869Z,101827.94
2022-10-11T07:43:50.937Z,101827.56
2022-10-11T07:46:18.624Z,101827.53
2022-10-11T07:48:45.011Z,101834.88
2022-10-11T07:51:17.557Z,101830.69
2022-10-11T07:53:46.422Z,101837.28
2022-10-11T07:56:15.137Z,101845.84
2022-10-11T07:58:42.609Z,101844.56
2022-10-11T08:01:10.711Z,101849.25
2022-10-11T08:03:38.160Z,101848.13
2022-10-11T08:06:08.452Z,101860.56
2022-10-11T08:08:36.485Z,101863.94
2022-10-11T08:11:02.996Z,101859.25
2022-10-11T08:13:29.547Z,101869.72
2022-10-11T08:15:56.263Z,101869.88
2022-10-11T08:18:22.795Z,101871.66
2022-10-11T08:20:49.235Z,101877.16
2022-10-11T08:23:17.047Z,101883.28
2022-10-11T08:25:47.286Z,101874.25
2022-10-11T08:28:17.945Z,101873.13
2022-10-11T08:30:53.050Z,101875.06
2022-10-11T08:33:21.403Z,101875.22
2022-10-11T08:35:48.695Z,101875.22
2022-10-11T08:38:16.578Z,101873.59
2022-10-11T08:40:55.235Z,101885.72
2022-10-11T08:43:41.878Z,101885.72
2022-10-11T08:46:10.712Z,101881.34
2022-10-11T08:48:47.200Z,101874.88
2022-10-11T08:51:23.198Z,101877.13
2022-10-11T08:54:07.164Z,101881.81
2022-10-11T08:56:38.768Z,101882.81
2022-10-11T08:59:10.831Z,101881.19
2022-10-11T09:01:44.474Z,101886.50
2022-10-11T09:04:14.162Z,101888.13
2022-10-11T09:06:53.454Z,101895.56
2022-10-11T09:09:20.145Z,101904.56
2022-10-11T09:12:03.732Z,101904.56
2022-10-11T09:14:48.506Z,101901.31
2022-10-11T09:17:29.818Z,101912.00
2022-10-11T09:20:14.592Z,101907.63
2022-10-11T09:23:03.171Z,101899.34
2022-10-11T09:25:46.824Z,101906.28
2022-10-11T09:28:31.770Z,101913.72
2022-10-11T09:30:59.303Z,101916.72
2022-10-11T09:33:43.892Z,101910.91
2022-10-11T09:36:37.204Z,101904.31
2022-10-11T09:39:24.594Z,101916.53
2022-10-11T09:41:55.456Z,101921.72
2022-10-11T09:44:27.994Z,101921.59
2022-10-11T09:46:56.034Z,101920.41
2022-10-11T09:49:28.364Z,101924.41
2022-10-11T09:51:57.362Z,101918.84
2022-10-11T09:54:38.726Z,101926.38
2022-10-11T09:57:05.222Z,101929.09
2022-10-11T09:59:33.914Z,101931.31
2022-10-11T10:02:12.623Z,101938.06
2022-10-11T10:05:04.886Z,101934.47
2022-10-11T10:07:32.389Z,101939.22
2022-10-11T10:09:59.075Z,101939.69
2022-10-11T10:12:30.312Z,101942.88
2022-10-11T10:15:13.678Z,101948.78
2022-10-11T10:17:48.844Z,101954.94
2022-10-11T10:20:34.522Z,101953.59
2022-10-11T10:23:08.403Z,101954.47
2022-10-11T10:25:43.118Z,101957.03
2022-10-11T10:28:24.845Z,101964.59
2022-10-11T10:30:55.931Z,101965.81
2022-10-11T10:33:25.201Z,101965.94
2022-10-11T10:36:19.057Z,101970.19
2022-10-11T10:38:52.379Z,101980.31
2022-10-11T10:41:19.453Z,101977.47
2022-10-11T10:43:53.509Z,101987.06
2022-10-11T10:46:38.666Z,101986.75
2022-10-11T10:52:32.048Z,101994.13
2022-10-11T10:55:19.803Z,101996.53
2022-10-11T10:58:07.112Z,102002.88
2022-10-11T11:00:48.301Z,102001.91
2022-10-11T11:03:17.751Z,102005.47
2022-10-11T11:06:25.496Z,102008.69
2022-10-11T11:09:03.263Z,102006.28
2022-10-11T11:11:42.787Z,102017.34
2022-10-11T11:14:44.452Z,102017.28
2022-10-11T11:17:45.165Z,102020.34
2022-10-11T11:20:20.849Z,102010.84
2022-10-11T11:23:17.998Z,102017.59
2022-10-11T11:26:26.002Z,102016.81
2022-10-11T11:29:00.125Z,102013.06
2022-10-11T11:31:35.636Z,102028.75
2022-10-11T11:34:18.871Z,102020.81
2022-10-11T11:36:54.154Z,102022.22
2022-10-11T11:39:34.770Z,102020.63
2022-10-11T11:42:21.226Z,102018.56
2022-10-11T11:44:49.853Z,102021.97
2022-10-11T11:47:42.392Z,102022.56
2022-10-11T11:50:25.178Z,102019.47
2022-10-11T11:53:11.590Z,102017.81
2022-10-11T11:55:49.169Z,102017.28
2022-10-11T11:58:37.188Z,102022.88
2022-10-11T12:01:31.534Z,102014.06
2022-10-11T12:04:12.349Z,102026.41
2022-10-11T12:06:52.509Z,102021.72
2022-10-11T12:09:25.714Z,102012.66
2022-10-11T12:12:06.916Z,102022.91
2022-10-11T12:14:33.333Z,102030.50
2022-10-11T12:17:16.277Z,102033.50
2022-10-11T12:20:01.015Z,102020.88
2022-10-11T12:22:27.584Z,102023.88
2022-10-11T12:24:56.737Z,102028.59
2022-10-11T12:27:40.230Z,102030.22
2022-10-11T12:30:48.009Z,102034.56
2022-10-11T12:33:23.657Z,102025.13
2022-10-11T12:35:52.886Z,102033.53
2022-10-11T12:38:33.071Z,102030.75
2022-10-11T12:41:00.595Z,102036.38
2022-10-11T12:43:36.040Z,102027.41
2022-10-11T12:46:41.329Z,102030.84
2022-10-11T12:49:45.171Z,102033.25
2022-10-11T12:52:17.715Z,102037.16
2022-10-11T12:55:09.234Z,102030.56
2022-10-11T12:57:40.501Z,102033.31
2022-10-11T13:00:23.761Z,102032.41
2022-10-11T13:02:50.258Z,102032.81
2022-10-11T13:05:45.029Z,102035.28
2022-10-11T13:08:22.566Z,102042.06
2022-10-11T13:10:49.015Z,102040.38
2022-10-11T13:13:39.447Z,102034.63
2022-10-11T13:16:16.807Z,102044.22
2022-10-11T13:18:45.811Z,102044.13
2022-10-11T13:21:26.862Z,102047.13
2022-10-11T13:24:00.410Z,102045.06
2022-10-11T13:26:29.055Z,102047.03
2022-10-11T13:28:55.658Z,102044.81
2022-10-11T13:31:23.945Z,102044.13
2022-10-11T13:33:54.814Z,102046.06
2022-10-11T13:36:24.255Z,102043.53
2022-10-11T13:39:01.476Z,102042.13
2022-10-11T13:41:29.877Z,102041.78
2022-10-11T13:43:58.608Z,102048.63
2022-10-11T13:46:27.868Z,102054.28
2022-10-11T13:49:06.579Z,102041.25
2022-10-11T13:51:37.239Z,102044.47
2022-10-11T13:54:13.056Z,102046.22
2022-10-11T13:56:50.820Z,102045.22
2022-10-11T13:59:28.121Z,102038.69
2022-10-11T14:02:00.146Z,102049.03
2022-10-11T14:04:29.778Z,102043.78
2022-10-11T14:07:03.266Z,102041.47
2022-10-11T14:09:36.732Z,102042.34
2022-10-11T14:12:38.049Z,102037.59
2022-10-11T14:15:07.055Z,102042.56
2022-10-11T14:17:41.210Z,102050.47
2022-10-11T14:20:19.619Z,102047.59
2022-10-11T14:22:46.247Z,102045.69
2022-10-11T14:25:13.260Z,102049.41
2022-10-11T14:27:40.010Z,102047.28
2022-10-11T14:30:27.437Z,102039.47
2022-10-11T14:32:56.525Z,102041.19
2022-10-11T14:35:26.162Z,102045.53
2022-10-11T14:37:53.152Z,102048.63
2022-10-11T14:40:30.732Z,102051.88
2022-10-11T14:42:57.618Z,102050.91
2022-10-11T14:45:24.107Z,102051.03
2022-10-11T14:47:50.966Z,102039.97
2022-10-11T14:50:42.031Z,102039.50
2022-10-11T14:53:10.762Z,102044.00
2022-10-11T14:55:39.528Z,102046.88
2022-10-11T14:58:08.574Z,102046.53
2022-10-11T15:00:36.655Z,102041.44
2022-10-11T15:03:04.903Z,102046.75
2022-10-11T15:05:34.238Z,102041.44
2022-10-11T15:08:01.754Z,102040.16
2022-10-11T15:10:38.133Z,102041.63
2022-10-11T15:13:06.927Z,102046.25
2022-10-11T15:15:36.754Z,102029.91
2022-10-11T15:18:06.030Z,102040.63
2022-10-11T15:20:37.690Z,102036.81
2022-10-11T15:23:05.670Z,102034.47
2022-10-11T15:25:32.332Z,102041.63
2022-10-11T15:27:58.935Z,102032.38
2022-10-11T15:30:29.087Z,102039.97
2022-10-11T15:32:55.490Z,102033.81
2022-10-11T15:35:23.578Z,102036.91
2022-10-11T15:37:58.376Z,102032.38
2022-10-11T15:40:33.930Z,102029.88
2022-10-11T15:43:00.349Z,102032.56
2022-10-11T15:45:26.970Z,102029.78
2022-10-11T15:47:53.534Z,102025.31
2022-10-11T15:50:35.147Z,102036.31
2022-10-11T15:53:05.058Z,102031.13
2022-10-11T15:55:33.253Z,102024.19
2022-10-11T15:57:59.882Z,102026.13
2022-10-11T16:00:27.017Z,102017.50
2022-10-11T16:02:53.927Z,102021.84
2022-10-11T16:05:21.955Z,102019.06
2022-10-11T16:07:48.476Z,102018.53
2022-10-11T16:10:14.991Z,102020.47
2022-10-11T16:12:41.430Z,102024.22
2022-10-11T16:15:08.376Z,102021.81
2022-10-11T16:17:34.791Z,102017.97
2022-10-11T16:20:01.220Z,102018.78
2022-10-11T16:22:27.734Z,102019.59
2022-10-11T16:24:54.082Z,102029.03
2022-10-11T16:27:20.526Z,102017.06
2022-10-11T16:29:46.925Z,102024.88
2022-10-11T16:32:13.483Z,102036.53
2022-10-11T16:34:39.875Z,102028.81
2022-10-11T16:37:06.189Z,102033.66
2022-10-11T16:39:33.702Z,102031.09
2022-10-11T16:42:00.056Z,102025.13
2022-10-11T16:44:27.776Z,102024.16
2022-10-11T16:46:55.139Z,102037.19
2022-10-11T16:49:25.051Z,102032.34
2022-10-11T16:51:53.342Z,102036.22
2022-10-11T16:54:21.053Z,102030.72
2022-10-11T16:56:49.426Z,102028.84
2022-10-11T16:59:16.152Z,102026.91
2022-10-11T17:01:43.306Z,102026.72
2022-10-11T17:04:09.663Z,102032.84
2022-10-11T17:06:36.122Z,102023.97
2022-10-11T17:09:02.586Z,102023.00
2022-10-11T17:11:28.944Z,102022.22
2022-10-11T17:13:55.324Z,102021.81
2022-10-11T17:16:22.524Z,102022.97
2022-10-11T17:18:49.365Z,102022.63
2022-10-11T17:21:17.765Z,102028.09
2022-10-11T17:23:44.314Z,102020.91
2022-10-11T17:26:15.999Z,102018.00
2022-10-11T17:28:42.588Z,102028.63
2022-10-11T17:31:09.658Z,102016.53
2022-10-11T17:33:36.553Z,102027.50
2022-10-11T17:36:27.779Z,102028.78
2022-10-11T17:38:54.164Z,102024.25
2022-10-11T17:41:20.907Z,102028.63
2022-10-11T17:43:47.982Z,102026.16
2022-10-11T17:46:16.512Z,102032.41
2022-10-11T17:48:44.468Z,102036.66
2022-10-11T17:51:14.326Z,102027.41
2022-10-11T17:53:40.960Z,102026.75
2022-10-11T17:56:09.727Z,102027.13
2022-10-11T17:58:36.799Z,102033.09
2022-10-11T18:01:10.834Z,102036.19
2022-10-11T18:03:37.808Z,102027.31
2022-10-11T18:06:06.103Z,102022.19
2022-10-11T18:08:40.440Z,102020.91
2022-10-11T18:11:13.200Z,102021.44
2022-10-11T18:13:42.785Z,102021.44
2022-10-11T18:16:09.921Z,102021.63
2022-10-11T18:18:36.690Z,102023.22
2022-10-11T18:21:03.706Z,102021.31
2022-10-11T18:23:30.703Z,102020.34
2022-10-11T18:25:57.232Z,102023.22
2022-10-11T18:28:23.688Z,102022.44
2022-10-11T18:30:50.150Z,102028.91
2022-10-11T18:33:16.807Z,102026.84
2022-10-11T18:35:43.175Z,102024.75
2022-10-11T18:38:09.633Z,102022.63
2022-10-11T18:40:44.702Z,102020.69
2022-10-11T18:43:13.303Z,102017.78
2022-10-11T18:45:39.652Z,102019.53
2022-10-11T18:48:08.572Z,102007.59
2022-10-11T18:50:35.561Z,102007.72
2022-10-11T18:53:02.132Z,102006.75
2022-10-11T18:55:28.726Z,102005.97
2022-10-11T18:57:55.106Z,102001.19
2022-10-11T19:00:40.061Z,102001.34
2022-10-11T19:03:07.365Z,102009.53
2022-10-11T19:05:33.737Z,101998.41
2022-10-11T19:08:00.160Z,101998.81
2022-10-11T19:10:26.524Z,102001.91
2022-10-11T19:12:52.937Z,102001.22
2022-10-11T19:15:19.340Z,102002.22
2022-10-11T19:17:45.724Z,102000.13
2022-10-11T19:20:12.756Z,102002.09
2022-10-11T19:22:39.098Z,102001.22
2022-10-11T19:25:06.180Z,102000.78
2022-10-11T19:27:32.675Z,101998.69
2022-10-11T19:30:00.284Z,102004.50
2022-10-11T19:32:26.677Z,102005.09
2022-10-11T19:34:53.116Z,101994.16
2022-10-11T19:37:19.544Z,101998.22
2022-10-11T19:39:45.922Z,101997.72
2022-10-11T19:42:12.299Z,101996.81
2022-10-11T19:44:39.778Z,102006.16
2022-10-11T19:47:06.581Z,102008.59
2022-10-11T19:49:32.987Z,102006.81
2022-10-11T19:52:00.977Z,102006.66
2022-10-11T19:54:27.370Z,102009.41
2022-10-11T19:56:53.782Z,102015.53
2022-10-11T19:59:20.217Z,102016.31
2022-10-11T20:01:52.067Z,102013.09
2022-10-11T20:04:47.473Z,102007.88
2022-10-11T20:07:06.701Z,102009.34
2022-10-11T20:09:33.112Z,102008.22
2022-10-11T20:11:59.551Z,102015.94
2022-10-11T20:14:25.931Z,102013.38
2022-10-11T20:16:52.713Z,102012.88
2022-10-11T20:19:19.355Z,102003.69
2022-10-11T20:21:45.862Z,102003.28
2022-10-11T20:24:12.411Z,102003.78
2022-10-11T20:26:39.291Z,102004.94
2022-10-11T20:29:06.315Z,102005.19
2022-10-11T20:31:34.528Z,102003.59
2022-10-11T20:34:03.975Z,102002.16
2022-10-11T20:36:30.937Z,102004.44
2022-10-11T20:38:58.621Z,102000.91
2022-10-11T20:41:27.705Z,102004.16
2022-10-11T20:43:56.306Z,102001.56
2022-10-11T20:46:25.003Z,102003.31
2022-10-11T20:48:58.890Z,102002.19
2022-10-11T20:51:28.733Z,102001.09
2022-10-11T20:53:55.395Z,102003.97
2022-10-11T20:56:22.412Z,102002.69
2022-10-11T20:58:53.689Z,101998.97
2022-10-11T21:01:23.166Z,102006.22
2022-10-11T21:03:50.296Z,101999.88
2022-10-11T21:06:16.823Z,102001.81
2022-10-11T21:08:43.974Z,102006.97
2022-10-11T21:11:10.934Z,102005.66
2022-10-11T21:13:37.757Z,102008.38
2022-10-11T21:16:06.787Z,102009.59
2022-10-11T21:18:33.278Z,102007.63
2022-10-11T21:21:06.285Z,102005.06
2022-10-11T21:23:32.733Z,102006.03
2022-10-11T21:26:04.040Z,102001.16
2022-10-11T21:28:30.853Z,102001.00
2022-10-11T21:31:03.670Z,101999.69
2022-10-11T21:33:30.323Z,102005.16
2022-10-11T21:35:57.392Z,102005.59
2022-10-11T21:38:23.762Z,102000.50
2022-10-11T21:40:50.143Z,102001.94
2022-10-11T21:43:16.487Z,101999.56
2022-10-11T21:45:43.128Z,102001.78
2022-10-11T21:48:09.492Z,102002.94
2022-10-11T21:50:35.810Z,101996.34
2022-10-11T21:53:02.235Z,102003.00
2022-10-11T21:55:28.689Z,102004.94
2022-10-11T21:57:55.641Z,101998.94
2022-10-11T22:00:22.005Z,102003.94
2022-10-11T22:02:48.643Z,102005.22
2022-10-11T22:05:15.086Z,102010.03
2022-10-11T22:07:41.439Z,102013.44
2022-10-11T22:10:07.895Z,102025.69
2022-10-11T22:12:34.606Z,102018.41
2022-10-11T22:15:01.331Z,102012.16
2022-10-11T22:17:27.680Z,102019.19
2022-10-11T22:19:54.016Z,102023.66
2022-10-11T22:22:20.333Z,102029.16
2022-10-11T22:24:46.687Z,102033.63
2022-10-11T22:27:13.091Z,102027.81
2022-10-11T22:29:39.421Z,102029.22
2022-10-11T22:32:05.800Z,102026.41
2022-10-11T22:34:33.066Z,102029.41
2022-10-11T22:36:59.434Z,102032.34
2022-10-11T22:39:25.793Z,102028.47
2022-10-11T22:41:53.617Z,102034.16
2022-10-11T22:44:20.028Z,102028.03
2022-10-11T22:46:46.395Z,102027.03
2022-10-11T22:49:12.951Z,102034.13
2022-10-11T22:51:39.295Z,102031.00
2022-10-11T22:54:05.705Z,102026.41
2022-10-11T22:56:32.090Z,102027.13
2022-10-11T22:58:59.435Z,102036.47
2022-10-11T23:01:25.793Z,102030.50
2022-10-11T23:03:52.220Z,102038.91
2022-10-11T23:06:18.868Z,102037.59
2022-10-11T23:08:45.289Z,102030.66
2022-10-11T23:11:12.478Z,102034.88
2022-10-11T23:13:38.981Z,102039.72
2022-10-11T23:16:07.553Z,102037.47
2022-10-11T23:18:34.123Z,102037.97
2022-10-11T23:21:01.242Z,102032.78
2022-10-11T23:23:27.578Z,102036.19
2022-10-11T23:26:06.439Z,102031.81
2022-10-11T23:28:33.291Z,102029.53
2022-10-11T23:30:59.863Z,102034.56
2022-10-11T23:33:28.339Z,102037.44
2022-10-11T23:35:54.708Z,102031.59
2022-10-11T23:38:21.157Z,102031.00
2022-10-11T23:40:47.489Z,102023.94
2022-10-11T23:43:14.078Z,102034.44
2022-10-11T23:45:40.397Z,102032.88
2022-10-11T23:48:06.724Z,102030.22
2022-10-11T23:50:33.068Z,102036.72
2022-10-11T23:52:59.386Z,102031.75
2022-10-11T23:55:25.721Z,102034.47
2022-10-11T23:57:52.088Z,102025.63
